sensor_id;sensor_type;location;lat;lon;timestamp;temperature;humidity
13856;DHT22;6998;53.608;9.958;2023-07-29T00:02:05;18.10;99.90
13856;DHT22;6998;53.608;9.958;2023-07-29T00:04:31;18.00;99.90
13856;DHT22;6998;53.608;9.958;2023-07-29T00:06:58;18.00;99.90
13856;DHT22;6998;53.608;9.958;2023-07-29T00:09:26;18.00;99.90
13856;DHT22;6998;53.608;9.958;2023-07-29T00:11:53;17.90;99.90
13856;DHT22;6998;53.608;9.958;2023-07-29T00:14:19;17.80;99.90
13856;DHT22;6998;53.608;9.958;2023-07-29T00:16:46;17.80;99.90
13856;DHT22;6998;53.608;9.958;2023-07-29T00:19:13;17.80;99.90
13856;DHT22;6998;53.608;9.958;2023-07-29T00:21:39;17.80;99.90
13856;DHT22;6998;53.608;9.958;2023-07-29T00:24:06;17.80;99.90
13856;DHT22;6998;53.608;9.958;2023-07-29T00:26:34;17.80;99.90
13856;DHT22;6998;53.608;9.958;2023-07-29T00:29:01;17.70;99.90
13856;DHT22;6998;53.608;9.958;2023-07-29T00:31:28;17.60;99.90
13856;DHT22;6998;53.608;9.958;2023-07-29T00:33:54;17.70;99.90
13856;DHT22;6998;53.608;9.958;2023-07-29T00:36:22;17.60;99.90
13856;DHT22;6998;53.608;9.958;2023-07-29T00:38:48;17.70;99.90
13856;DHT22;6998;53.608;9.958;2023-07-29T00:41:16;17.70;99.90
13856;DHT22;6998;53.608;9.958;2023-07-29T00:43:44;17.70;99.90
13856;DHT22;6998;53.608;9.958;2023-07-29T00:46:11;17.70;99.90
13856;DHT22;6998;53.608;9.958;2023-07-29T00:48:38;17.70;99.90
13856;DHT22;6998;53.608;9.958;2023-07-29T00:51:05;17.60;99.90
13856;DHT22;6998;53.608;9.958;2023-07-29T00:53:32;17.60;99.90
13856;DHT22;6998;53.608;9.958;2023-07-29T00:55:59;17.60;99.90
13856;DHT22;6998;53.608;9.958;2023-07-29T00:58:26;17.50;99.90
13856;DHT22;6998;53.608;9.958;2023-07-29T01:00:54;17.40;99.90
13856;DHT22;6998;53.608;9.958;2023-07-29T01:03:21;17.50;99.90
13856;DHT22;6998;53.608;9.958;2023-07-29T01:05:55;17.50;99.90
13856;DHT22;6998;53.608;9.958;2023-07-29T01:08:31;17.60;99.90
13856;DHT22;6998;53.608;9.958;2023-07-29T01:11:07;17.50;99.90
13856;DHT22;6998;53.608;9.958;2023-07-29T01:13:43;17.60;99.90
13856;DHT22;6998;53.608;9.958;2023-07-29T01:16:17;17.60;99.90
13856;DHT22;6998;53.608;9.958;2023-07-29T01:18:47;17.60;99.90
13856;DHT22;6998;53.608;9.958;2023-07-29T01:21:15;17.60;99.90
13856;DHT22;6998;53.608;9.958;2023-07-29T01:23:44;17.60;99.90
13856;DHT22;6998;53.608;9.958;2023-07-29T01:26:11;17.60;99.90
13856;DHT22;6998;53.608;9.958;2023-07-29T01:28:38;17.50;99.90
13856;DHT22;6998;53.608;9.958;2023-07-29T01:31:10;17.60;99.90
13856;DHT22;6998;53.608;9.958;2023-07-29T01:33:40;17.70;99.90
13856;DHT22;6998;53.608;9.958;2023-07-29T01:36:13;17.70;99.90
13856;DHT22;6998;53.608;9.958;2023-07-29T01:38:44;17.80;99.90
13856;DHT22;6998;53.608;9.958;2023-07-29T01:41:12;17.80;99.90
13856;DHT22;6998;53.608;9.958;2023-07-29T01:43:39;17.80;99.90
13856;DHT22;6998;53.608;9.958;2023-07-29T01:46:09;17.90;99.90
13856;DHT22;6998;53.608;9.958;2023-07-29T01:48:37;17.90;99.90
13856;DHT22;6998;53.608;9.958;2023-07-29T01:51:03;17.90;99.90
13856;DHT22;6998;53.608;9.958;2023-07-29T01:53:31;18.00;99.90
13856;DHT22;6998;53.608;9.958;2023-07-29T01:55:59;18.00;99.90
13856;DHT22;6998;53.608;9.958;2023-07-29T01:58:25;18.00;99.90
13856;DHT22;6998;53.608;9.958;2023-07-29T02:00:52;18.00;99.90
13856;DHT22;6998;53.608;9.958;2023-07-29T02:03:19;18.00;99.90
13856;DHT22;6998;53.608;9.958;2023-07-29T02:05:45;18.10;99.90
13856;DHT22;6998;53.608;9.958;2023-07-29T02:08:12;18.10;99.90
13856;DHT22;6998;53.608;9.958;2023-07-29T02:10:39;18.10;99.90
13856;DHT22;6998;53.608;9.958;2023-07-29T02:13:08;18.10;99.90
13856;DHT22;6998;53.608;9.958;2023-07-29T02:15:35;18.10;99.90
13856;DHT22;6998;53.608;9.958;2023-07-29T02:18:01;18.10;99.90
13856;DHT22;6998;53.608;9.958;2023-07-29T02:20:29;18.00;99.90
13856;DHT22;6998;53.608;9.958;2023-07-29T02:22:55;18.00;99.90
13856;DHT22;6998;53.608;9.958;2023-07-29T02:25:22;18.10;99.90
13856;DHT22;6998;53.608;9.958;2023-07-29T02:27:49;18.10;99.90
13856;DHT22;6998;53.608;9.958;2023-07-29T02:30:17;18.10;99.90
13856;DHT22;6998;53.608;9.958;2023-07-29T02:32:43;18.20;99.90
13856;DHT22;6998;53.608;9.958;2023-07-29T02:35:12;18.10;99.90
13856;DHT22;6998;53.608;9.958;2023-07-29T02:37:38;18.10;99.90
13856;DHT22;6998;53.608;9.958;2023-07-29T02:40:06;18.10;99.90
13856;DHT22;6998;53.608;9.958;2023-07-29T02:42:34;18.10;99.90
13856;DHT22;6998;53.608;9.958;2023-07-29T02:45:00;18.10;99.90
13856;DHT22;6998;53.608;9.958;2023-07-29T02:47:28;18.10;99.90
13856;DHT22;6998;53.608;9.958;2023-07-29T02:49:55;18.20;99.90
13856;DHT22;6998;53.608;9.958;2023-07-29T02:52:22;18.10;99.90
13856;DHT22;6998;53.608;9.958;2023-07-29T02:54:48;18.20;99.90
13856;DHT22;6998;53.608;9.958;2023-07-29T02:57:15;18.20;99.90
13856;DHT22;6998;53.608;9.958;2023-07-29T02:59:42;18.10;99.90
13856;DHT22;6998;53.608;9.958;2023-07-29T03:02:09;18.10;99.90
13856;DHT22;6998;53.608;9.958;2023-07-29T03:04:37;18.20;99.90
13856;DHT22;6998;53.608;9.958;2023-07-29T03:07:04;18.20;99.90
13856;DHT22;6998;53.608;9.958;2023-07-29T03:09:30;18.30;99.90
13856;DHT22;6998;53.608;9.958;2023-07-29T03:11:58;18.30;99.90
13856;DHT22;6998;53.608;9.958;2023-07-29T03:14:25;18.30;99.90
13856;DHT22;6998;53.608;9.958;2023-07-29T03:16:52;18.40;99.90
13856;DHT22;6998;53.608;9.958;2023-07-29T03:19:19;18.40;99.90
13856;DHT22;6998;53.608;9.958;2023-07-29T03:21:47;18.40;99.90
13856;DHT22;6998;53.608;9.958;2023-07-29T03:24:13;18.40;99.90
13856;DHT22;6998;53.608;9.958;2023-07-29T03:26:40;18.40;99.90
13856;DHT22;6998;53.608;9.958;2023-07-29T03:29:06;18.30;99.90
13856;DHT22;6998;53.608;9.958;2023-07-29T03:31:33;18.20;99.90
13856;DHT22;6998;53.608;9.958;2023-07-29T03:34:00;18.20;99.90
13856;DHT22;6998;53.608;9.958;2023-07-29T03:36:27;18.10;99.90
13856;DHT22;6998;53.608;9.958;2023-07-29T03:38:55;18.10;99.90
13856;DHT22;6998;53.608;9.958;2023-07-29T03:41:22;18.10;99.90
13856;DHT22;6998;53.608;9.958;2023-07-29T03:43:48;18.10;99.90
13856;DHT22;6998;53.608;9.958;2023-07-29T03:46:15;18.10;99.90
13856;DHT22;6998;53.608;9.958;2023-07-29T03:48:45;18.10;99.90
13856;DHT22;6998;53.608;9.958;2023-07-29T03:51:11;18.10;99.90
13856;DHT22;6998;53.608;9.958;2023-07-29T03:53:38;18.20;99.90
13856;DHT22;6998;53.608;9.958;2023-07-29T03:56:07;18.10;99.90
13856;DHT22;6998;53.608;9.958;2023-07-29T03:58:34;18.20;99.90
13856;DHT22;6998;53.608;9.958;2023-07-29T04:01:00;18.20;99.90
13856;DHT22;6998;53.608;9.958;2023-07-29T04:03:27;18.20;99.90
13856;DHT22;6998;53.608;9.958;2023-07-29T04:05:54;18.30;99.90
13856;DHT22;6998;53.608;9.958;2023-07-29T04:08:20;18.40;99.90
13856;DHT22;6998;53.608;9.958;2023-07-29T04:10:48;18.40;99.90
13856;DHT22;6998;53.608;9.958;2023-07-29T04:13:16;18.50;99.90
13856;DHT22;6998;53.608;9.958;2023-07-29T04:15:43;18.60;99.90
13856;DHT22;6998;53.608;9.958;2023-07-29T04:18:09;18.70;99.90
13856;DHT22;6998;53.608;9.958;2023-07-29T04:20:36;18.70;99.90
13856;DHT22;6998;53.608;9.958;2023-07-29T04:23:02;18.70;99.90
13856;DHT22;6998;53.608;9.958;2023-07-29T04:25:29;18.80;99.90
13856;DHT22;6998;53.608;9.958;2023-07-29T04:27:56;18.90;99.90
13856;DHT22;6998;53.608;9.958;2023-07-29T04:30:25;19.00;99.90
13856;DHT22;6998;53.608;9.958;2023-07-29T04:32:51;19.00;99.90
13856;DHT22;6998;53.608;9.958;2023-07-29T04:35:18;19.00;99.90
13856;DHT22;6998;53.608;9.958;2023-07-29T04:37:45;19.00;99.90
13856;DHT22;6998;53.608;9.958;2023-07-29T04:40:13;19.00;99.90
13856;DHT22;6998;53.608;9.958;2023-07-29T04:42:40;19.00;99.90
13856;DHT22;6998;53.608;9.958;2023-07-29T04:45:07;19.10;99.90
13856;DHT22;6998;53.608;9.958;2023-07-29T04:47:35;19.00;99.90
13856;DHT22;6998;53.608;9.958;2023-07-29T04:50:02;19.00;99.90
13856;DHT22;6998;53.608;9.958;2023-07-29T04:52:29;19.10;99.90
13856;DHT22;6998;53.608;9.958;2023-07-29T04:54:56;19.10;99.90
13856;DHT22;6998;53.608;9.958;2023-07-29T04:57:22;19.10;99.90
13856;DHT22;6998;53.608;9.958;2023-07-29T04:59:49;19.10;99.90
13856;DHT22;6998;53.608;9.958;2023-07-29T05:02:16;19.10;99.90
13856;DHT22;6998;53.608;9.958;2023-07-29T05:04:44;19.10;99.90
13856;DHT22;6998;53.608;9.958;2023-07-29T05:07:10;19.10;99.90
13856;DHT22;6998;53.608;9.958;2023-07-29T05:09:37;19.20;99.90
13856;DHT22;6998;53.608;9.958;2023-07-29T05:12:05;19.20;99.90
13856;DHT22;6998;53.608;9.958;2023-07-29T05:14:32;19.20;99.90
13856;DHT22;6998;53.608;9.958;2023-07-29T05:16:58;19.20;99.90
13856;DHT22;6998;53.608;9.958;2023-07-29T05:19:26;19.20;99.90
13856;DHT22;6998;53.608;9.958;2023-07-29T05:21:54;19.30;99.90
13856;DHT22;6998;53.608;9.958;2023-07-29T05:24:20;19.40;99.90
13856;DHT22;6998;53.608;9.958;2023-07-29T05:26:48;19.60;99.90
13856;DHT22;6998;53.608;9.958;2023-07-29T05:29:15;19.70;99.90
13856;DHT22;6998;53.608;9.958;2023-07-29T05:31:41;19.80;99.90
13856;DHT22;6998;53.608;9.958;2023-07-29T05:34:08;19.80;99.90
13856;DHT22;6998;53.608;9.958;2023-07-29T05:36:36;19.80;99.90
13856;DHT22;6998;53.608;9.958;2023-07-29T05:39:04;19.90;99.90
13856;DHT22;6998;53.608;9.958;2023-07-29T05:41:31;20.00;99.90
13856;DHT22;6998;53.608;9.958;2023-07-29T05:43:57;20.10;99.90
13856;DHT22;6998;53.608;9.958;2023-07-29T05:46:24;20.20;99.90
13856;DHT22;6998;53.608;9.958;2023-07-29T05:48:50;20.30;99.90
13856;DHT22;6998;53.608;9.958;2023-07-29T05:51:17;20.40;99.90
13856;DHT22;6998;53.608;9.958;2023-07-29T05:53:44;20.50;99.90
13856;DHT22;6998;53.608;9.958;2023-07-29T05:56:12;20.40;99.90
13856;DHT22;6998;53.608;9.958;2023-07-29T05:58:39;20.30;99.90
13856;DHT22;6998;53.608;9.958;2023-07-29T06:01:06;20.30;99.90
13856;DHT22;6998;53.608;9.958;2023-07-29T06:03:32;20.20;99.90
13856;DHT22;6998;53.608;9.958;2023-07-29T06:05:59;20.10;99.90
13856;DHT22;6998;53.608;9.958;2023-07-29T06:08:26;20.10;99.90
13856;DHT22;6998;53.608;9.958;2023-07-29T06:10:53;20.10;99.90
13856;DHT22;6998;53.608;9.958;2023-07-29T06:13:22;20.10;99.90
13856;DHT22;6998;53.608;9.958;2023-07-29T06:15:48;20.20;99.90
13856;DHT22;6998;53.608;9.958;2023-07-29T06:18:15;20.10;99.90
13856;DHT22;6998;53.608;9.958;2023-07-29T06:20:42;20.30;99.90
13856;DHT22;6998;53.608;9.958;2023-07-29T06:23:08;20.40;99.90
13856;DHT22;6998;53.608;9.958;2023-07-29T06:25:35;20.50;99.90
13856;DHT22;6998;53.608;9.958;2023-07-29T06:28:02;20.60;99.90
13856;DHT22;6998;53.608;9.958;2023-07-29T06:30:30;20.50;99.90
13856;DHT22;6998;53.608;9.958;2023-07-29T06:32:56;20.50;99.90
13856;DHT22;6998;53.608;9.958;2023-07-29T06:35:23;20.50;99.90
13856;DHT22;6998;53.608;9.958;2023-07-29T06:37:50;20.60;99.90
13856;DHT22;6998;53.608;9.958;2023-07-29T06:40:16;20.60;99.90
13856;DHT22;6998;53.608;9.958;2023-07-29T06:42:43;20.60;99.90
13856;DHT22;6998;53.608;9.958;2023-07-29T06:45:10;20.50;99.90
13856;DHT22;6998;53.608;9.958;2023-07-29T06:47:38;20.50;99.90
13856;DHT22;6998;53.608;9.958;2023-07-29T06:50:05;20.50;99.90
13856;DHT22;6998;53.608;9.958;2023-07-29T06:52:32;20.40;99.90
13856;DHT22;6998;53.608;9.958;2023-07-29T06:54:59;20.40;99.90
13856;DHT22;6998;53.608;9.958;2023-07-29T06:57:25;20.50;99.90
13856;DHT22;6998;53.608;9.958;2023-07-29T06:59:52;20.50;99.90
13856;DHT22;6998;53.608;9.958;2023-07-29T07:02:19;20.50;99.90
13856;DHT22;6998;53.608;9.958;2023-07-29T07:04:47;20.50;99.90
13856;DHT22;6998;53.608;9.958;2023-07-29T07:07:15;20.60;99.90
13856;DHT22;6998;53.608;9.958;2023-07-29T07:09:41;20.60;99.90
13856;DHT22;6998;53.608;9.958;2023-07-29T07:12:08;20.60;99.90
13856;DHT22;6998;53.608;9.958;2023-07-29T07:14:35;20.60;99.90
13856;DHT22;6998;53.608;9.958;2023-07-29T07:17:01;20.60;99.90
13856;DHT22;6998;53.608;9.958;2023-07-29T07:19:28;20.50;99.90
13856;DHT22;6998;53.608;9.958;2023-07-29T07:21:56;20.40;99.90
13856;DHT22;6998;53.608;9.958;2023-07-29T07:24:23;20.40;99.90
13856;DHT22;6998;53.608;9.958;2023-07-29T07:26:49;20.40;99.90
13856;DHT22;6998;53.608;9.958;2023-07-29T07:29:16;20.40;99.90
13856;DHT22;6998;53.608;9.958;2023-07-29T07:31:50;20.40;99.90
13856;DHT22;6998;53.608;9.958;2023-07-29T07:34:17;20.40;99.90
13856;DHT22;6998;53.608;9.958;2023-07-29T07:36:44;20.40;99.90
13856;DHT22;6998;53.608;9.958;2023-07-29T07:39:12;20.30;99.90
13856;DHT22;6998;53.608;9.958;2023-07-29T07:41:39;20.30;99.90
13856;DHT22;6998;53.608;9.958;2023-07-29T07:44:05;20.40;99.90
13856;DHT22;6998;53.608;9.958;2023-07-29T07:46:32;20.40;99.90
13856;DHT22;6998;53.608;9.958;2023-07-29T07:48:59;20.50;99.90
13856;DHT22;6998;53.608;9.958;2023-07-29T07:51:25;20.50;99.90
13856;DHT22;6998;53.608;9.958;2023-07-29T07:53:52;20.40;99.90
13856;DHT22;6998;53.608;9.958;2023-07-29T07:56:20;20.30;99.90
13856;DHT22;6998;53.608;9.958;2023-07-29T07:58:47;20.30;99.90
13856;DHT22;6998;53.608;9.958;2023-07-29T08:01:13;20.30;99.90
13856;DHT22;6998;53.608;9.958;2023-07-29T08:03:40;20.20;99.90
13856;DHT22;6998;53.608;9.958;2023-07-29T08:06:07;20.20;99.90
13856;DHT22;6998;53.608;9.958;2023-07-29T08:08:33;20.20;99.90
13856;DHT22;6998;53.608;9.958;2023-07-29T08:11:00;20.20;99.90
13856;DHT22;6998;53.608;9.958;2023-07-29T08:13:28;20.20;99.90
13856;DHT22;6998;53.608;9.958;2023-07-29T08:15:55;20.20;99.90
13856;DHT22;6998;53.608;9.958;2023-07-29T08:18:21;20.30;99.90
13856;DHT22;6998;53.608;9.958;2023-07-29T08:20:52;20.30;99.90
13856;DHT22;6998;53.608;9.958;2023-07-29T08:23:19;20.50;99.90
13856;DHT22;6998;53.608;9.958;2023-07-29T08:25:51;20.50;99.90
13856;DHT22;6998;53.608;9.958;2023-07-29T08:28:18;20.40;99.90
13856;DHT22;6998;53.608;9.958;2023-07-29T08:30:46;20.30;99.90
13856;DHT22;6998;53.608;9.958;2023-07-29T08:33:13;20.30;99.90
13856;DHT22;6998;53.608;9.958;2023-07-29T08:35:40;20.40;99.90
13856;DHT22;6998;53.608;9.958;2023-07-29T08:38:06;20.40;99.90
13856;DHT22;6998;53.608;9.958;2023-07-29T08:40:34;20.40;99.90
13856;DHT22;6998;53.608;9.958;2023-07-29T08:43:04;20.40;99.90
13856;DHT22;6998;53.608;9.958;2023-07-29T08:45:34;20.40;99.90
13856;DHT22;6998;53.608;9.958;2023-07-29T08:48:07;20.50;99.90
13856;DHT22;6998;53.608;9.958;2023-07-29T08:50:35;20.50;99.90
13856;DHT22;6998;53.608;9.958;2023-07-29T08:53:04;20.70;99.90
13856;DHT22;6998;53.608;9.958;2023-07-29T08:55:31;20.90;99.90
13856;DHT22;6998;53.608;9.958;2023-07-29T08:57:59;20.90;99.90
13856;DHT22;6998;53.608;9.958;2023-07-29T09:00:28;21.00;99.90
13856;DHT22;6998;53.608;9.958;2023-07-29T09:02:55;21.00;99.90
13856;DHT22;6998;53.608;9.958;2023-07-29T09:05:24;21.00;99.90
13856;DHT22;6998;53.608;9.958;2023-07-29T09:07:51;21.00;99.90
13856;DHT22;6998;53.608;9.958;2023-07-29T09:10:22;21.10;99.90
13856;DHT22;6998;53.608;9.958;2023-07-29T09:12:49;21.40;99.90
13856;DHT22;6998;53.608;9.958;2023-07-29T09:15:27;21.50;99.90
13856;DHT22;6998;53.608;9.958;2023-07-29T09:17:54;21.70;99.90
13856;DHT22;6998;53.608;9.958;2023-07-29T09:20:25;21.70;99.90
13856;DHT22;6998;53.608;9.958;2023-07-29T09:22:54;21.80;99.90
13856;DHT22;6998;53.608;9.958;2023-07-29T09:25:24;21.90;99.90
13856;DHT22;6998;53.608;9.958;2023-07-29T09:27:51;22.00;99.90
13856;DHT22;6998;53.608;9.958;2023-07-29T09:30:18;22.00;99.90
13856;DHT22;6998;53.608;9.958;2023-07-29T09:32:45;22.10;99.90
13856;DHT22;6998;53.608;9.958;2023-07-29T09:35:12;22.20;99.90
13856;DHT22;6998;53.608;9.958;2023-07-29T09:37:40;22.20;99.90
13856;DHT22;6998;53.608;9.958;2023-07-29T09:40:13;22.40;99.90
13856;DHT22;6998;53.608;9.958;2023-07-29T09:42:40;22.50;99.90
13856;DHT22;6998;53.608;9.958;2023-07-29T09:45:19;22.80;99.90
13856;DHT22;6998;53.608;9.958;2023-07-29T09:47:46;22.80;99.90
13856;DHT22;6998;53.608;9.958;2023-07-29T09:50:13;22.90;99.90
13856;DHT22;6998;53.608;9.958;2023-07-29T09:52:41;23.20;99.90
13856;DHT22;6998;53.608;9.958;2023-07-29T09:55:09;23.30;99.90
13856;DHT22;6998;53.608;9.958;2023-07-29T09:57:36;23.40;99.90
13856;DHT22;6998;53.608;9.958;2023-07-29T10:00:05;23.30;99.90
13856;DHT22;6998;53.608;9.958;2023-07-29T10:02:37;23.40;99.90
13856;DHT22;6998;53.608;9.958;2023-07-29T10:05:05;23.40;99.90
13856;DHT22;6998;53.608;9.958;2023-07-29T10:07:33;23.50;99.90
13856;DHT22;6998;53.608;9.958;2023-07-29T10:10:02;23.70;99.90
13856;DHT22;6998;53.608;9.958;2023-07-29T10:12:31;23.90;99.90
13856;DHT22;6998;53.608;9.958;2023-07-29T10:14:59;24.10;99.90
13856;DHT22;6998;53.608;9.958;2023-07-29T10:17:26;24.30;99.90
13856;DHT22;6998;53.608;9.958;2023-07-29T10:19:54;24.60;99.90
13856;DHT22;6998;53.608;9.958;2023-07-29T10:22:25;24.70;99.90
13856;DHT22;6998;53.608;9.958;2023-07-29T10:24:54;25.00;99.90
13856;DHT22;6998;53.608;9.958;2023-07-29T10:27:25;25.20;99.90
13856;DHT22;6998;53.608;9.958;2023-07-29T10:29:55;24.90;99.90
13856;DHT22;6998;53.608;9.958;2023-07-29T10:32:25;24.50;99.90
13856;DHT22;6998;53.608;9.958;2023-07-29T10:34:52;24.40;99.90
13856;DHT22;6998;53.608;9.958;2023-07-29T10:37:19;24.30;99.90
13856;DHT22;6998;53.608;9.958;2023-07-29T10:39:52;24.10;99.90
13856;DHT22;6998;53.608;9.958;2023-07-29T10:42:19;24.10;99.90
13856;DHT22;6998;53.608;9.958;2023-07-29T10:44:48;24.10;99.90
13856;DHT22;6998;53.608;9.958;2023-07-29T10:47:20;24.40;99.90
13856;DHT22;6998;53.608;9.958;2023-07-29T10:49:49;24.60;99.90
13856;DHT22;6998;53.608;9.958;2023-07-29T10:52:28;24.60;99.90
13856;DHT22;6998;53.608;9.958;2023-07-29T10:54:55;24.50;99.90
13856;DHT22;6998;53.608;9.958;2023-07-29T10:57:31;24.20;99.90
13856;DHT22;6998;53.608;9.958;2023-07-29T11:00:00;24.10;99.90
13856;DHT22;6998;53.608;9.958;2023-07-29T11:02:29;24.00;99.90
13856;DHT22;6998;53.608;9.958;2023-07-29T11:04:57;24.00;99.90
13856;DHT22;6998;53.608;9.958;2023-07-29T11:07:25;24.00;99.90
13856;DHT22;6998;53.608;9.958;2023-07-29T11:09:59;24.20;99.90
13856;DHT22;6998;53.608;9.958;2023-07-29T11:12:43;24.30;99.90
13856;DHT22;6998;53.608;9.958;2023-07-29T11:15:30;24.40;99.90
13856;DHT22;6998;53.608;9.958;2023-07-29T11:17:57;24.60;99.90
13856;DHT22;6998;53.608;9.958;2023-07-29T11:20:25;24.70;99.90
13856;DHT22;6998;53.608;9.958;2023-07-29T11:22:52;24.80;99.90
13856;DHT22;6998;53.608;9.958;2023-07-29T11:25:21;24.80;99.90
13856;DHT22;6998;53.608;9.958;2023-07-29T11:27:50;24.70;99.90
13856;DHT22;6998;53.608;9.958;2023-07-29T11:30:17;24.60;99.90
13856;DHT22;6998;53.608;9.958;2023-07-29T11:32:46;24.70;99.90
13856;DHT22;6998;53.608;9.958;2023-07-29T11:35:14;24.80;99.90
13856;DHT22;6998;53.608;9.958;2023-07-29T11:37:43;25.00;99.90
13856;DHT22;6998;53.608;9.958;2023-07-29T11:40:13;25.10;99.90
13856;DHT22;6998;53.608;9.958;2023-07-29T11:42:41;25.20;99.90
13856;DHT22;6998;53.608;9.958;2023-07-29T11:45:08;25.40;99.90
13856;DHT22;6998;53.608;9.958;2023-07-29T11:47:35;25.60;99.90
13856;DHT22;6998;53.608;9.958;2023-07-29T11:50:05;25.70;99.90
13856;DHT22;6998;53.608;9.958;2023-07-29T11:52:32;25.70;99.90
13856;DHT22;6998;53.608;9.958;2023-07-29T11:55:00;25.80;99.90
13856;DHT22;6998;53.608;9.958;2023-07-29T11:57:27;25.90;99.90
13856;DHT22;6998;53.608;9.958;2023-07-29T11:59:54;25.90;99.90
13856;DHT22;6998;53.608;9.958;2023-07-29T12:02:22;26.00;99.90
13856;DHT22;6998;53.608;9.958;2023-07-29T12:04:50;25.60;99.90
13856;DHT22;6998;53.608;9.958;2023-07-29T12:07:18;25.30;99.90
13856;DHT22;6998;53.608;9.958;2023-07-29T12:09:46;25.20;99.90
13856;DHT22;6998;53.608;9.958;2023-07-29T12:12:13;25.10;99.90
13856;DHT22;6998;53.608;9.958;2023-07-29T12:14:44;25.10;99.90
13856;DHT22;6998;53.608;9.958;2023-07-29T12:17:10;25.20;99.90
13856;DHT22;6998;53.608;9.958;2023-07-29T12:19:38;25.50;99.90
13856;DHT22;6998;53.608;9.958;2023-07-29T12:22:07;25.70;99.90
13856;DHT22;6998;53.608;9.958;2023-07-29T12:24:36;25.80;99.90
13856;DHT22;6998;53.608;9.958;2023-07-29T12:27:04;25.90;99.90
13856;DHT22;6998;53.608;9.958;2023-07-29T12:29:31;26.10;99.90
13856;DHT22;6998;53.608;9.958;2023-07-29T12:31:58;26.10;99.90
13856;DHT22;6998;53.608;9.958;2023-07-29T12:34:26;26.30;99.90
13856;DHT22;6998;53.608;9.958;2023-07-29T12:36:54;26.40;99.90
13856;DHT22;6998;53.608;9.958;2023-07-29T12:39:23;26.30;99.90
13856;DHT22;6998;53.608;9.958;2023-07-29T12:41:52;26.20;99.90
13856;DHT22;6998;53.608;9.958;2023-07-29T12:44:19;26.20;99.90
13856;DHT22;6998;53.608;9.958;2023-07-29T12:46:46;26.20;99.90
13856;DHT22;6998;53.608;9.958;2023-07-29T12:49:13;26.10;99.90
13856;DHT22;6998;53.608;9.958;2023-07-29T12:51:40;26.00;99.90
13856;DHT22;6998;53.608;9.958;2023-07-29T12:54:07;26.10;99.90
13856;DHT22;6998;53.608;9.958;2023-07-29T12:56:34;26.00;99.90
13856;DHT22;6998;53.608;9.958;2023-07-29T12:59:02;25.90;99.90
13856;DHT22;6998;53.608;9.958;2023-07-29T13:01:29;26.00;99.90
13856;DHT22;6998;53.608;9.958;2023-07-29T13:03:56;25.80;99.90
13856;DHT22;6998;53.608;9.958;2023-07-29T13:06:23;25.80;99.90
13856;DHT22;6998;53.608;9.958;2023-07-29T13:08:49;25.90;99.90
13856;DHT22;6998;53.608;9.958;2023-07-29T13:11:16;25.90;99.90
13856;DHT22;6998;53.608;9.958;2023-07-29T13:13:43;25.80;99.90
13856;DHT22;6998;53.608;9.958;2023-07-29T13:16:12;25.70;99.90
13856;DHT22;6998;53.608;9.958;2023-07-29T13:18:39;25.50;99.90
13856;DHT22;6998;53.608;9.958;2023-07-29T13:21:06;25.40;99.90
13856;DHT22;6998;53.608;9.958;2023-07-29T13:23:33;25.40;99.90
13856;DHT22;6998;53.608;9.958;2023-07-29T13:26:00;25.40;99.90
13856;DHT22;6998;53.608;9.958;2023-07-29T13:28:26;25.60;99.90
13856;DHT22;6998;53.608;9.958;2023-07-29T13:30:53;25.70;99.90
13856;DHT22;6998;53.608;9.958;2023-07-29T13:33:21;25.80;99.90
13856;DHT22;6998;53.608;9.958;2023-07-29T13:35:48;25.80;99.90
13856;DHT22;6998;53.608;9.958;2023-07-29T13:38:15;25.80;99.90
13856;DHT22;6998;53.608;9.958;2023-07-29T13:40:42;25.70;99.90
13856;DHT22;6998;53.608;9.958;2023-07-29T13:43:09;25.70;99.90
13856;DHT22;6998;53.608;9.958;2023-07-29T13:45:36;25.80;99.90
13856;DHT22;6998;53.608;9.958;2023-07-29T13:48:03;25.80;99.90
13856;DHT22;6998;53.608;9.958;2023-07-29T13:50:31;25.80;99.90
13856;DHT22;6998;53.608;9.958;2023-07-29T13:52:58;26.00;99.90
13856;DHT22;6998;53.608;9.958;2023-07-29T13:55:25;26.00;99.90
13856;DHT22;6998;53.608;9.958;2023-07-29T13:57:52;26.10;99.90
13856;DHT22;6998;53.608;9.958;2023-07-29T14:00:20;26.20;99.90
13856;DHT22;6998;53.608;9.958;2023-07-29T14:02:46;26.20;99.90
13856;DHT22;6998;53.608;9.958;2023-07-29T14:05:13;26.20;99.90
13856;DHT22;6998;53.608;9.958;2023-07-29T14:07:41;26.10;99.90
13856;DHT22;6998;53.608;9.958;2023-07-29T14:10:08;25.70;99.90
13856;DHT22;6998;53.608;9.958;2023-07-29T14:12:35;25.60;99.90
13856;DHT22;6998;53.608;9.958;2023-07-29T14:15:03;25.60;99.90
13856;DHT22;6998;53.608;9.958;2023-07-29T14:17:30;25.70;99.90
13856;DHT22;6998;53.608;9.958;2023-07-29T14:19:57;25.80;99.90
13856;DHT22;6998;53.608;9.958;2023-07-29T14:22:24;25.80;99.90
13856;DHT22;6998;53.608;9.958;2023-07-29T14:24:52;25.90;99.90
13856;DHT22;6998;53.608;9.958;2023-07-29T14:27:18;25.60;99.90
13856;DHT22;6998;53.608;9.958;2023-07-29T14:29:45;25.70;99.90
13856;DHT22;6998;53.608;9.958;2023-07-29T14:32:12;25.80;99.90
13856;DHT22;6998;53.608;9.958;2023-07-29T14:34:39;26.00;99.90
13856;DHT22;6998;53.608;9.958;2023-07-29T14:37:05;26.00;99.90
13856;DHT22;6998;53.608;9.958;2023-07-29T14:39:32;25.90;99.90
13856;DHT22;6998;53.608;9.958;2023-07-29T14:42:00;25.90;99.90
13856;DHT22;6998;53.608;9.958;2023-07-29T14:44:27;25.90;99.90
13856;DHT22;6998;53.608;9.958;2023-07-29T14:46:54;25.70;99.90
13856;DHT22;6998;53.608;9.958;2023-07-29T14:49:20;25.60;99.90
13856;DHT22;6998;53.608;9.958;2023-07-29T14:51:47;25.60;99.90
13856;DHT22;6998;53.608;9.958;2023-07-29T14:54:14;25.90;99.90
13856;DHT22;6998;53.608;9.958;2023-07-29T14:56:41;26.10;99.90
13856;DHT22;6998;53.608;9.958;2023-07-29T14:59:09;26.20;99.90
13856;DHT22;6998;53.608;9.958;2023-07-29T15:01:35;26.10;99.90
13856;DHT22;6998;53.608;9.958;2023-07-29T15:04:02;25.90;99.90
13856;DHT22;6998;53.608;9.958;2023-07-29T15:06:29;25.90;99.90
13856;DHT22;6998;53.608;9.958;2023-07-29T15:08:56;26.10;99.90
13856;DHT22;6998;53.608;9.958;2023-07-29T15:11:23;26.30;99.90
13856;DHT22;6998;53.608;9.958;2023-07-29T15:13:49;26.30;99.90
13856;DHT22;6998;53.608;9.958;2023-07-29T15:16:17;26.30;99.90
13856;DHT22;6998;53.608;9.958;2023-07-29T15:18:44;26.50;99.90
13856;DHT22;6998;53.608;9.958;2023-07-29T15:21:11;26.60;99.90
13856;DHT22;6998;53.608;9.958;2023-07-29T15:23:37;26.70;99.90
13856;DHT22;6998;53.608;9.958;2023-07-29T15:26:04;26.80;99.90
13856;DHT22;6998;53.608;9.958;2023-07-29T15:28:31;26.80;99.90
13856;DHT22;6998;53.608;9.958;2023-07-29T15:30:57;26.60;99.90
13856;DHT22;6998;53.608;9.958;2023-07-29T15:33:25;26.70;99.90
13856;DHT22;6998;53.608;9.958;2023-07-29T15:35:52;26.80;99.90
13856;DHT22;6998;53.608;9.958;2023-07-29T15:38:19;26.80;99.90
13856;DHT22;6998;53.608;9.958;2023-07-29T15:40:45;26.80;99.90
13856;DHT22;6998;53.608;9.958;2023-07-29T15:43:14;26.80;99.90
13856;DHT22;6998;53.608;9.958;2023-07-29T15:45:41;27.10;99.90
13856;DHT22;6998;53.608;9.958;2023-07-29T15:48:08;27.20;99.90